Time;durP1;ratioP1;P1;durP2;ratioP2;P2;SDS_P1;SDS_P2;PMS_P1;PMS_P2;Temp;Humidity;BMP_temperature;BMP_pressure;BME280_temperature;BME280_humidity;BME280_pressure;Samples;Min_cycle;Max_cycle;Signal;HPM_P1;HPM_P2
2020/12/24 00:01:03;;;;;;;14.90;2.08;;;9.90;88.20;;;;;;5041475;28;20044;-83
2020/12/24 00:03:29;;;;;;;10.75;1.60;;;9.90;88.40;;;;;;5058223;28;20389;-84
2020/12/24 00:05:54;;;;;;;11.93;1.75;;;9.80;88.00;;;;;;5061129;28;20058;-83
2020/12/24 00:08:21;;;;;;;10.63;1.70;;;9.90;88.60;;;;;;5074279;28;20479;-83
2020/12/24 00:10:48;;;;;;;12.27;1.67;;;9.90;88.30;;;;;;5075884;28;20063;-79
2020/12/24 00:13:14;;;;;;;10.80;1.48;;;9.90;88.30;;;;;;5074184;28;20393;-79
2020/12/24 00:15:40;;;;;;;7.47;1.52;;;9.90;88.30;;;;;;5075736;28;20488;-79
2020/12/24 00:18:05;;;;;;;8.55;1.77;;;9.90;88.20;;;;;;5074432;28;20114;-84
2020/12/24 00:20:31;;;;;;;9.88;1.70;;;9.80;87.80;;;;;;5041172;28;20024;-83
2020/12/24 00:22:57;;;;;;;9.68;1.75;;;9.80;87.90;;;;;;5057484;28;20384;-83
2020/12/24 00:25:22;;;;;;;13.73;1.92;;;9.80;87.90;;;;;;5075454;28;20055;-83
2020/12/24 00:27:48;;;;;;;10.40;1.70;;;9.80;87.50;;;;;;5057567;28;20032;-79
2020/12/24 00:30:13;;;;;;;8.55;1.70;;;9.70;87.50;;;;;;5075397;28;20027;-79
2020/12/24 00:32:39;;;;;;;13.07;2.20;;;9.70;87.60;;;;;;5057357;28;20051;-79
2020/12/24 00:35:05;;;;;;;11.02;2.00;;;9.80;87.60;;;;;;5074225;28;20465;-79
2020/12/24 00:37:31;;;;;;;7.95;1.50;;;9.70;87.40;;;;;;5073847;28;20435;-79
2020/12/24 00:39:57;;;;;;;9.85;1.58;;;9.70;87.40;;;;;;5074058;28;20077;-79
2020/12/24 00:42:22;;;;;;;12.32;1.88;;;9.70;87.50;;;;;;5075123;28;20497;-79
2020/12/24 00:44:48;;;;;;;11.80;1.75;;;9.70;87.60;;;;;;5057234;28;20078;-79
2020/12/24 00:47:14;;;;;;;13.00;1.63;;;9.60;87.60;;;;;;5073178;28;20177;-79
2020/12/24 00:49:39;;;;;;;14.15;2.03;;;9.50;87.60;;;;;;5074555;28;20032;-89
2020/12/24 00:52:05;;;;;;;10.98;2.22;;;9.50;87.70;;;;;;5058289;28;20029;-89
2020/12/24 00:54:30;;;;;;;8.32;1.67;;;9.40;88.40;;;;;;5057984;28;20110;-88
2020/12/24 00:56:56;;;;;;;8.80;1.73;;;9.40;87.70;;;;;;5058212;28;20123;-89
2020/12/24 00:59:21;;;;;;;9.10;1.52;;;9.40;88.10;;;;;;5074467;28;20392;-89
2020/12/24 01:01:47;;;;;;;9.07;2.05;;;9.30;88.10;;;;;;5074788;28;20469;-88
2020/12/24 01:04:13;;;;;;;15.85;2.17;;;9.40;88.10;;;;;;5041354;28;20529;-89
2020/12/24 01:06:38;;;;;;;14.23;1.70;;;9.30;88.60;;;;;;5041167;28;20044;-89
2020/12/24 01:09:04;;;;;;;14.55;1.98;;;9.30;88.10;;;;;;5057773;28;20149;-89
2020/12/24 01:11:31;;;;;;;12.80;2.60;;;9.30;88.60;;;;;;5075585;28;20112;-88
2020/12/24 01:13:57;;;;;;;11.82;1.73;;;9.30;88.00;;;;;;5041259;28;20028;-89
2020/12/24 01:16:22;;;;;;;12.00;1.80;;;9.30;88.10;;;;;;5074558;28;20078;-88
2020/12/24 01:18:48;;;;;;;13.73;2.13;;;9.30;88.20;;;;;;5073972;28;20422;-83
2020/12/24 01:21:14;;;;;;;15.20;1.92;;;9.30;88.10;;;;;;5040009;28;20025;-82
2020/12/24 01:23:39;;;;;;;7.78;1.73;;;9.30;88.20;;;;;;5073317;28;20469;-83
2020/12/24 01:26:09;;;;;;;11.95;2.15;;;9.30;88.10;;;;;;5073294;28;20366;-83
2020/12/24 01:28:35;;;;;;;9.10;1.63;;;9.30;88.10;;;;;;5073508;28;20365;-83
2020/12/24 01:31:01;;;;;;;12.77;2.35;;;9.20;88.10;;;;;;5073048;28;20101;-83
2020/12/24 01:33:27;;;;;;;12.35;1.75;;;9.20;88.00;;;;;;5074316;28;20481;-83
2020/12/24 01:35:53;;;;;;;12.30;1.83;;;9.20;88.20;;;;;;5072876;28;20025;-83
2020/12/24 01:38:19;;;;;;;9.98;1.98;;;9.20;88.30;;;;;;5072832;28;20031;-83
2020/12/24 01:40:46;;;;;;;9.77;2.08;;;9.20;89.10;;;;;;5056294;28;20052;-83
2020/12/24 01:43:11;;;;;;;9.88;1.90;;;9.20;88.80;;;;;;5072802;28;20032;-83
2020/12/24 01:45:37;;;;;;;12.30;1.55;;;9.20;88.80;;;;;;5056317;28;20031;-83
2020/12/24 01:48:03;;;;;;;17.05;2.50;;;9.20;88.90;;;;;;5074008;28;20096;-83
2020/12/24 01:50:28;;;;;;;10.45;1.88;;;9.20;89.10;;;;;;5072724;28;20024;-83
2020/12/24 01:53:25;;;;;;;12.50;2.00;;;9.20;89.10;;;;;;5039527;28;20040;-83
2020/12/24 01:55:51;;;;;;;12.10;2.10;;;9.20;89.30;;;;;;5073969;28;20028;-77
2020/12/24 01:58:18;;;;;;;16.98;2.10;;;9.20;89.20;;;;;;5072629;28;20033;-76
2020/12/24 02:00:47;;;;;;;10.57;1.80;;;9.20;89.00;;;;;;5056160;28;20031;-76
2020/12/24 02:03:14;;;;;;;10.88;1.70;;;9.20;88.90;;;;;;5072382;28;20029;-79
2020/12/24 02:05:40;;;;;;;12.43;1.88;;;9.20;89.60;;;;;;5055598;28;20067;-79
2020/12/24 02:08:06;;;;;;;15.25;1.92;;;9.30;88.90;;;;;;5073544;28;20105;-79
2020/12/24 02:10:31;;;;;;;14.27;2.50;;;9.20;88.30;;;;;;5055758;28;20056;-78
2020/12/24 02:12:57;;;;;;;11.45;1.77;;;9.30;88.70;;;;;;5055760;28;20036;-82
2020/12/24 02:15:23;;;;;;;12.85;1.83;;;9.30;89.50;;;;;;5073680;28;20056;-83
2020/12/24 02:17:48;;;;;;;15.50;2.40;;;9.30;89.70;;;;;;5072563;28;20726;-89
2020/12/24 02:20:14;;;;;;;16.25;2.80;;;9.20;90.10;;;;;;5073449;28;20031;-89
2020/12/24 02:22:40;;;;;;;14.98;1.95;;;9.30;90.30;;;;;;5073154;28;20028;-89
2020/12/24 02:25:06;;;;;;;14.00;2.22;;;9.20;90.40;;;;;;5072766;28;20029;-89
2020/12/24 02:27:31;;;;;;;15.15;2.55;;;9.20;90.50;;;;;;5073067;28;20028;-89
2020/12/24 02:30:01;;;;;;;10.80;2.10;;;9.20;90.60;;;;;;5055949;28;20040;-89
2020/12/24 02:32:27;;;;;;;9.00;1.75;;;9.20;90.70;;;;;;5071974;28;20024;-82
2020/12/24 02:34:55;;;;;;;9.60;1.70;;;9.10;90.70;;;;;;5072136;28;20119;-82
2020/12/24 02:37:21;;;;;;;13.07;1.60;;;9.10;90.80;;;;;;5072104;28;20031;-82
2020/12/24 02:39:48;;;;;;;13.65;2.05;;;9.10;90.80;;;;;;5055337;28;20037;-83
2020/12/24 02:42:14;;;;;;;19.05;2.15;;;9.10;90.90;;;;;;5073569;28;20024;-83
2020/12/24 02:44:39;;;;;;;10.85;1.92;;;9.10;90.90;;;;;;5055082;28;20385;-82
2020/12/24 02:47:05;;;;;;;14.02;2.22;;;9.10;91.00;;;;;;5038582;28;20477;-83
2020/12/24 02:49:30;;;;;;;14.30;1.77;;;9.10;91.10;;;;;;5071863;28;20038;-82
2020/12/24 02:51:56;;;;;;;20.13;1.95;;;9.10;91.10;;;;;;5071821;28;20078;-82
2020/12/24 02:54:22;;;;;;;15.80;2.25;;;9.10;91.20;;;;;;5071914;28;20028;-83
2020/12/24 02:56:48;;;;;;;16.73;2.10;;;9.00;91.10;;;;;;5055210;28;20024;-82
2020/12/24 02:59:13;;;;;;;14.52;2.22;;;9.10;91.20;;;;;;5073148;28;20052;-82
2020/12/24 03:01:39;;;;;;;15.27;2.40;;;9.00;91.10;;;;;;5071813;28;20386;-83
2020/12/24 03:04:04;;;;;;;11.57;1.83;;;9.00;91.20;;;;;;5055226;28;20166;-83
2020/12/24 03:06:30;;;;;;;9.02;1.70;;;9.00;91.10;;;;;;5055010;28;20059;-83
2020/12/24 03:08:55;;;;;;;15.27;1.70;;;9.00;91.10;;;;;;5071908;28;20440;-83
2020/12/24 03:11:21;;;;;;;12.88;2.00;;;9.00;91.10;;;;;;5058845;28;20554;-83
2020/12/24 03:13:47;;;;;;;11.25;1.95;;;9.00;91.10;;;;;;5059144;28;20035;-83
2020/12/24 03:16:14;;;;;;;14.30;2.20;;;8.90;91.10;;;;;;5058837;28;20500;-82
2020/12/24 03:18:40;;;;;;;12.32;2.00;;;8.90;91.10;;;;;;5075936;28;20621;-82
2020/12/24 03:21:06;;;;;;;12.88;2.15;;;8.90;91.20;;;;;;5059167;28;20082;-82
2020/12/24 03:23:31;;;;;;;9.63;1.38;;;8.80;91.10;;;;;;5058808;28;20020;-82
2020/12/24 03:25:57;;;;;;;10.10;1.60;;;8.90;91.10;;;;;;5075474;28;20062;-83
2020/12/24 03:28:22;;;;;;;11.93;1.65;;;8.80;91.10;;;;;;5075595;28;20119;-82
2020/12/24 03:30:48;;;;;;;16.17;2.10;;;8.80;91.40;;;;;;5059532;28;20463;-90
2020/12/24 03:33:13;;;;;;;11.52;1.55;;;8.80;91.10;;;;;;5075945;28;20028;-88
2020/12/24 03:35:39;;;;;;;8.75;1.52;;;8.70;91.10;;;;;;5077095;28;20523;-88
2020/12/24 03:38:05;;;;;;;14.15;2.10;;;8.70;91.30;;;;;;5076259;28;20063;-89
2020/12/24 03:40:30;;;;;;;14.40;2.08;;;8.60;91.00;;;;;;5059408;28;20123;-87
2020/12/24 03:42:56;;;;;;;14.05;2.00;;;8.60;91.00;;;;;;5042771;28;20037;-89
2020/12/24 03:45:21;;;;;;;18.77;2.17;;;8.60;91.00;;;;;;5059192;28;20082;-89
2020/12/24 03:47:48;;;;;;;12.40;1.98;;;8.60;91.00;;;;;;5076134;28;20032;-89
2020/12/24 03:50:13;;;;;;;10.65;1.67;;;8.60;91.00;;;;;;5059323;28;20405;-89
2020/12/24 03:52:39;;;;;;;15.93;2.30;;;8.60;91.00;;;;;;5075787;28;20024;-88
2020/12/24 03:55:04;;;;;;;12.55;2.40;;;8.60;91.00;;;;;;5059276;28;20103;-88
2020/12/24 03:57:30;;;;;;;17.05;2.15;;;8.60;91.00;;;;;;5075550;28;20533;-82
2020/12/24 03:59:56;;;;;;;8.93;1.70;;;8.70;91.00;;;;;;5076071;28;20063;-82
2020/12/24 04:02:21;;;;;;;12.95;1.77;;;8.70;91.00;;;;;;5058215;28;20120;-83
2020/12/24 04:04:47;;;;;;;14.80;1.80;;;8.70;91.10;;;;;;5075967;28;20052;-83
2020/12/24 04:07:12;;;;;;;14.00;2.20;;;8.80;91.10;;;;;;5077959;28;20098;-76
2020/12/24 04:09:38;;;;;;;12.25;2.00;;;8.80;91.00;;;;;;5057833;28;20109;-76
2020/12/24 04:12:04;;;;;;;16.60;1.67;;;8.70;91.00;;;;;;5062119;28;20030;-77
2020/12/24 04:14:30;;;;;;;14.13;1.65;;;8.80;91.00;;;;;;5077124;28;20040;-76
2020/12/24 04:16:56;;;;;;;11.05;1.92;;;8.80;91.20;;;;;;5061317;28;20025;-76
2020/12/24 04:19:21;;;;;;;8.65;1.55;;;8.80;91.30;;;;;;5062900;28;20090;-76
2020/12/24 04:21:47;;;;;;;9.23;1.52;;;8.80;91.00;;;;;;5056327;28;20123;-76
2020/12/24 04:24:13;;;;;;;9.88;1.50;;;8.80;91.10;;;;;;5057508;28;20029;-76
2020/12/24 04:26:38;;;;;;;11.90;1.98;;;8.80;91.10;;;;;;5040516;28;20032;-77
2020/12/24 04:29:04;;;;;;;11.48;1.70;;;8.80;91.10;;;;;;5057049;28;20028;-77
2020/12/24 04:31:29;;;;;;;10.65;1.35;;;8.80;91.10;;;;;;5040294;28;20040;-77
2020/12/24 04:33:55;;;;;;;12.13;1.85;;;8.70;91.10;;;;;;5056980;28;20392;-76
2020/12/24 04:36:20;;;;;;;8.40;1.50;;;8.70;91.10;;;;;;5045797;28;20039;-76
2020/12/24 04:38:46;;;;;;;12.93;1.85;;;8.70;91.20;;;;;;5069975;28;20094;-77
2020/12/24 04:41:12;;;;;;;9.40;1.40;;;8.70;91.20;;;;;;5039583;28;20024;-82
2020/12/24 04:43:38;;;;;;;12.55;2.17;;;8.70;91.20;;;;;;5074950;28;20033;-82
2020/12/24 04:46:06;;;;;;;9.20;1.30;;;8.70;91.20;;;;;;5040402;28;20381;-83
2020/12/24 04:48:33;;;;;;;10.23;2.28;;;8.70;91.20;;;;;;5056955;28;20032;-76
2020/12/24 04:51:00;;;;;;;8.90;1.77;;;8.70;91.20;;;;;;5080271;28;20021;-77
2020/12/24 04:53:26;;;;;;;11.90;1.83;;;8.70;91.20;;;;;;5040438;28;20029;-76
2020/12/24 04:55:53;;;;;;;8.07;1.58;;;8.70;91.10;;;;;;5057097;28;20365;-79
2020/12/24 04:58:20;;;;;;;11.20;1.50;;;8.70;91.10;;;;;;5056763;28;20063;-79
2020/12/24 05:00:47;;;;;;;17.17;1.90;;;8.70;91.20;;;;;;5056733;28;20052;-78
2020/12/24 05:03:13;;;;;;;13.27;1.70;;;8.70;91.20;;;;;;5056618;28;20025;-79
2020/12/24 05:05:39;;;;;;;12.15;1.38;;;8.80;91.00;;;;;;5078617;28;20063;-79
2020/12/24 05:08:09;;;;;;;9.60;1.70;;;8.80;91.00;;;;;;5076652;28;20083;-79
2020/12/24 05:10:36;;;;;;;17.50;1.70;;;8.80;91.00;;;;;;5056640;28;20048;-79
2020/12/24 05:13:16;;;;;;;6.88;1.58;;;8.80;91.00;;;;;;5069257;28;20031;-76
2020/12/24 05:15:42;;;;;;;14.75;2.15;;;8.80;91.10;;;;;;5076065;28;20410;-76
2020/12/24 05:18:18;;;;;;;12.00;1.58;;;8.80;91.00;;;;;;5075860;28;20085;-76
2020/12/24 05:20:47;;;;;;;16.05;1.83;;;8.80;91.00;;;;;;5091766;28;20020;-82
2020/12/24 05:23:17;;;;;;;8.80;1.42;;;8.80;91.00;;;;;;5093599;28;20020;-82
2020/12/24 05:25:45;;;;;;;9.85;1.58;;;8.80;91.10;;;;;;5075661;28;20115;-78
2020/12/24 05:28:27;;;;;;;9.77;1.42;;;8.80;91.00;;;;;;5074668;28;20044;-78
2020/12/24 05:30:54;;;;;;;11.02;1.55;;;8.80;91.10;;;;;;5092904;28;20024;-78
2020/12/24 05:33:31;;;;;;;9.50;1.60;;;8.80;91.10;;;;;;5057896;28;20069;-79
2020/12/24 05:36:21;;;;;;;11.13;1.50;;;8.80;91.20;;;;;;5092504;28;20034;-78
2020/12/24 05:38:48;;;;;;;17.45;1.48;;;8.80;91.30;;;;;;5073946;28;20387;-78
2020/12/24 05:41:31;;;;;;;12.45;2.10;;;8.70;91.30;;;;;;5059590;28;20034;-76
2020/12/24 05:44:02;;;;;;;12.25;1.60;;;8.70;91.40;;;;;;5056083;28;20025;-76
2020/12/24 05:46:38;;;;;;;9.68;1.33;;;8.70;91.40;;;;;;5076517;28;20028;-77
2020/12/24 05:49:09;;;;;;;10.30;1.60;;;8.70;91.40;;;;;;5075976;28;20023;-76
2020/12/24 05:51:35;;;;;;;8.00;1.60;;;8.70;91.40;;;;;;5059273;28;20028;-76
2020/12/24 05:54:01;;;;;;;7.63;1.23;;;8.60;91.40;;;;;;5075219;28;20031;-77
2020/12/24 05:56:27;;;;;;;12.52;1.55;;;8.60;91.50;;;;;;5073673;28;20047;-77
2020/12/24 05:58:53;;;;;;;7.00;1.40;;;8.70;91.50;;;;;;5074276;28;20024;-76
2020/12/24 06:01:20;;;;;;;8.43;1.42;;;8.70;91.60;;;;;;5093421;28;20071;-77
2020/12/24 06:04:03;;;;;;;9.07;1.42;;;8.60;91.60;;;;;;5058536;28;20036;-76
2020/12/24 06:06:48;;;;;;;10.70;1.80;;;8.60;91.70;;;;;;5064784;28;20457;-77
2020/12/24 06:09:21;;;;;;;8.77;2.20;;;8.60;91.70;;;;;;5071452;28;20078;-76
2020/12/24 06:11:49;;;;;;;8.60;0.90;;;8.60;91.70;;;;;;5071797;28;20032;-76
2020/12/24 06:14:29;;;;;;;7.35;1.30;;;8.50;91.70;;;;;;5072375;28;20025;-76
2020/12/24 06:17:00;;;;;;;6.57;1.10;;;8.50;91.80;;;;;;5073265;28;20031;-77
2020/12/24 06:19:26;;;;;;;6.88;1.05;;;8.50;91.70;;;;;;5073447;28;20020;-77
2020/12/24 06:21:52;;;;;;;5.40;1.40;;;8.40;91.70;;;;;;5072158;28;20025;-77
2020/12/24 06:24:19;;;;;;;10.18;1.10;;;8.30;91.70;;;;;;5054824;28;20031;-77
2020/12/24 06:26:47;;;;;;;6.18;1.00;;;8.30;91.70;;;;;;5054587;28;20028;-76
2020/12/24 06:29:15;;;;;;;7.63;1.15;;;8.30;91.80;;;;;;5071323;28;20040;-77
2020/12/24 06:31:42;;;;;;;3.97;1.00;;;8.20;91.80;;;;;;5071195;28;20059;-77
2020/12/24 06:34:30;;;;;;;4.97;0.90;;;8.20;92.10;;;;;;5072883;28;20027;-76
2020/12/24 06:37:10;;;;;;;9.55;1.23;;;8.30;91.90;;;;;;5073047;28;20085;-76
2020/12/24 06:39:45;;;;;;;8.77;1.25;;;8.30;91.90;;;;;;5063931;28;20211;-77
2020/12/24 06:42:35;;;;;;;7.05;1.30;;;8.30;92.00;;;;;;5054004;28;20033;-89
2020/12/24 06:45:05;;;;;;;10.13;1.42;;;8.30;92.00;;;;;;5061648;28;20108;-89
2020/12/24 06:47:30;;;;;;;4.32;0.98;;;8.30;92.00;;;;;;5072636;28;20111;-88
2020/12/24 06:49:56;;;;;;;8.45;1.48;;;8.30;91.90;;;;;;5073009;28;20083;-91
2020/12/24 06:52:29;;;;;;;6.57;1.30;;;8.30;91.90;;;;;;5056224;28;20036;-88
2020/12/24 06:55:16;;;;;;;12.48;1.65;;;8.30;92.00;;;;;;5072507;28;20110;-89
2020/12/24 06:57:43;;;;;;;8.27;1.70;;;8.40;92.00;;;;;;5068791;28;20370;-89
2020/12/24 07:00:18;;;;;;;9.55;1.20;;;8.40;92.00;;;;;;5072069;28;20119;-77
2020/12/24 07:02:53;;;;;;;7.93;1.23;;;8.40;92.00;;;;;;5073203;28;20055;-77
2020/12/24 07:05:40;;;;;;;14.63;1.70;;;8.40;92.00;;;;;;5073347;28;20028;-77
2020/12/24 07:08:07;;;;;;;10.52;1.30;;;8.40;92.20;;;;;;5075074;28;20488;-77
2020/12/24 07:10:45;;;;;;;7.72;1.42;;;8.40;92.00;;;;;;5075212;28;20361;-77
2020/12/24 07:13:30;;;;;;;11.73;1.58;;;8.40;92.00;;;;;;5075202;28;20078;-77
2020/12/24 07:15:57;;;;;;;8.88;1.65;;;8.40;92.00;;;;;;5076284;28;20025;-88
2020/12/24 07:18:24;;;;;;;7.57;1.42;;;8.40;92.00;;;;;;5059325;28;20533;-88
2020/12/24 07:20:50;;;;;;;7.95;1.40;;;8.40;92.00;;;;;;5075885;28;20028;-88
2020/12/24 07:23:31;;;;;;;9.88;1.50;;;8.40;92.20;;;;;;5076299;28;20147;-88
2020/12/24 07:26:02;;;;;;;11.52;1.52;;;8.40;92.00;;;;;;5094024;28;20024;-88
2020/12/24 07:28:32;;;;;;;8.98;1.40;;;8.40;92.00;;;;;;5093833;28;20059;-89
2020/12/24 07:31:07;;;;;;;7.85;1.20;;;8.50;92.00;;;;;;5075703;28;20028;-88
2020/12/24 07:33:34;;;;;;;7.90;1.50;;;8.50;92.00;;;;;;5093897;28;20024;-89
2020/12/24 07:36:00;;;;;;;7.93;1.60;;;8.50;92.30;;;;;;5075748;28;20024;-89
2020/12/24 07:38:28;;;;;;;5.55;0.98;;;8.50;92.00;;;;;;5075823;28;20433;-89
2020/12/24 07:40:54;;;;;;;2.00;0.47;;;8.50;91.40;;;;;;5076071;28;20020;-92
2020/12/24 07:43:20;;;;;;;5.57;0.60;;;8.20;90.00;;;;;;5077624;28;20036;-92
2020/12/24 07:45:46;;;;;;;0.68;0.35;;;7.80;89.60;;;;;;5077576;28;20054;-92
2020/12/24 07:48:13;;;;;;;0.50;0.50;;;7.40;89.30;;;;;;5077152;28;20080;-92
2020/12/24 07:50:38;;;;;;;1.63;0.70;;;7.20;90.20;;;;;;5094511;28;20087;-91
2020/12/24 07:53:05;;;;;;;0.70;0.50;;;7.00;90.40;;;;;;5076614;28;20055;-92
2020/12/24 07:55:31;;;;;;;0.60;0.50;;;6.80;90.50;;;;;;5059711;28;20028;-92
2020/12/24 07:58:10;;;;;;;1.30;0.70;;;6.70;90.70;;;;;;5062893;28;20024;-93
2020/12/24 08:00:39;;;;;;;;;;;6.60;90.80;;;;;;5063664;28;20031;-92
2020/12/24 08:03:05;;;;;;;0.60;0.60;;;6.40;90.70;;;;;;5062594;28;19908;-91
2020/12/24 08:05:30;;;;;;;0.57;0.57;;;6.30;91.00;;;;;;5062866;28;20140;-92
2020/12/24 08:07:56;;;;;;;0.75;0.75;;;6.30;91.10;;;;;;5079695;28;20511;-90
2020/12/24 08:10:21;;;;;;;0.50;0.50;;;6.20;91.20;;;;;;5046575;28;20563;-92
2020/12/24 08:12:47;;;;;;;0.93;0.63;;;6.20;91.30;;;;;;5063145;28;20035;-93
2020/12/24 08:15:23;;;;;;;1.55;0.50;;;6.20;91.30;;;;;;5079286;28;20426;-91
2020/12/24 08:17:59;;;;;;;0.50;0.50;;;6.10;91.40;;;;;;5079726;28;20024;-91
2020/12/24 08:20:38;;;;;;;3.80;0.70;;;6.10;91.50;;;;;;5079953;28;20020;-91
2020/12/24 08:23:17;;;;;;;0.60;0.60;;;6.00;91.40;;;;;;5097427;28;20045;-92
2020/12/24 08:25:51;;;;;;;0.55;0.50;;;6.00;91.40;;;;;;5097665;28;20024;-91
2020/12/24 08:28:17;;;;;;;0.30;0.30;;;5.90;91.40;;;;;;5098142;28;20040;-93
2020/12/24 08:30:47;;;;;;;1.08;0.50;;;5.90;91.40;;;;;;5080435;28;20066;-92
2020/12/24 08:33:14;;;;;;;0.50;0.50;;;5.80;91.40;;;;;;5080126;28;20028;-91
2020/12/24 08:35:39;;;;;;;0.50;0.50;;;5.80;91.60;;;;;;5097112;28;20032;-76
2020/12/24 08:38:10;;;;;;;0.93;0.50;;;5.80;91.50;;;;;;5043762;28;20024;-76
2020/12/24 08:40:36;;;;;;;0.70;0.52;;;5.80;91.60;;;;;;5077428;28;20027;-76
2020/12/24 08:43:06;;;;;;;1.02;0.50;;;5.70;91.60;;;;;;5060829;28;20028;-76
2020/12/24 08:45:31;;;;;;;0.77;0.60;;;5.70;91.60;;;;;;5060550;28;20027;-78
2020/12/24 08:47:57;;;;;;;0.50;0.47;;;5.70;91.70;;;;;;5060211;28;20021;-79
2020/12/24 08:50:49;;;;;;;0.32;0.30;;;5.70;91.70;;;;;;5060417;28;20031;-79
2020/12/24 08:53:22;;;;;;;1.20;0.50;;;5.70;91.70;;;;;;5053982;28;20036;-79
2020/12/24 08:55:48;;;;;;;0.95;0.55;;;5.70;91.70;;;;;;5074971;28;20481;-79
2020/12/24 08:58:14;;;;;;;0.73;0.43;;;5.70;91.60;;;;;;5074890;28;20095;-79
2020/12/24 09:00:39;;;;;;;0.30;0.30;;;5.70;91.60;;;;;;5056823;28;20031;-80
2020/12/24 09:03:24;;;;;;;1.65;0.60;;;5.70;91.60;;;;;;5073530;28;20031;-79
2020/12/24 09:05:50;;;;;;;1.58;0.50;;;5.70;91.70;;;;;;5105743;28;20134;-79
2020/12/24 09:08:23;;;;;;;0.75;0.57;;;5.80;91.70;;;;;;5056377;28;20064;-79
2020/12/24 09:10:49;;;;;;;0.47;0.47;;;5.80;91.70;;;;;;5040247;28;20032;-79
2020/12/24 09:13:14;;;;;;;0.50;0.50;;;5.90;91.70;;;;;;5073470;28;20048;-79
2020/12/24 09:15:40;;;;;;;0.60;0.60;;;5.90;91.70;;;;;;5040194;28;20036;-79
2020/12/24 09:18:07;;;;;;;1.00;0.50;;;6.00;91.60;;;;;;5068001;28;20028;-76
2020/12/24 09:20:34;;;;;;;1.23;0.43;;;6.00;91.50;;;;;;5076523;28;20028;-77
2020/12/24 09:23:11;;;;;;;0.88;0.45;;;6.10;91.40;;;;;;5076904;28;20044;-76
2020/12/24 09:25:43;;;;;;;1.17;0.70;;;6.10;91.20;;;;;;5059924;28;20116;-77
2020/12/24 09:28:19;;;;;;;2.20;0.80;;;6.10;91.20;;;;;;5076504;28;20024;-78
2020/12/24 09:30:44;;;;;;;0.57;0.57;;;6.10;91.40;;;;;;5076385;28;20422;-76
2020/12/24 09:33:10;;;;;;;0.98;0.98;;;6.10;91.50;;;;;;5094478;28;20024;-76
2020/12/24 09:35:36;;;;;;;0.80;0.80;;;6.10;91.50;;;;;;5059890;28;20036;-77
2020/12/24 09:38:02;;;;;;;1.02;0.82;;;6.10;91.50;;;;;;5076119;28;20024;-77
2020/12/24 09:40:27;;;;;;;2.85;1.10;;;6.10;91.60;;;;;;5076196;28;20073;-78
2020/12/24 09:42:53;;;;;;;2.88;1.15;;;6.10;91.40;;;;;;5076347;28;20063;-77
2020/12/24 09:45:18;;;;;;;0.88;0.88;;;6.00;91.40;;;;;;5059529;28;20545;-77
2020/12/24 09:47:46;;;;;;;0.90;0.90;;;6.00;91.50;;;;;;5076601;28;20036;-77
2020/12/24 09:50:12;;;;;;;1.35;0.95;;;5.90;91.50;;;;;;5076003;28;20169;-77
2020/12/24 09:52:38;;;;;;;1.48;1.00;;;5.90;91.60;;;;;;5076007;28;20480;-77
2020/12/24 09:55:04;;;;;;;1.60;1.20;;;5.90;91.70;;;;;;5076087;28;20042;-76
2020/12/24 09:57:32;;;;;;;2.35;1.10;;;5.90;91.70;;;;;;5075879;28;20477;-77
2020/12/24 09:59:57;;;;;;;1.23;1.10;;;6.00;91.70;;;;;;5093856;28;20035;-77
2020/12/24 10:02:23;;;;;;;1.20;1.10;;;6.00;91.60;;;;;;5042325;28;20388;-77
2020/12/24 10:04:49;;;;;;;2.38;1.30;;;6.00;91.60;;;;;;5059232;28;20078;-77
2020/12/24 10:07:14;;;;;;;1.92;1.33;;;6.00;91.70;;;;;;5055337;28;20105;-77
2020/12/24 10:09:40;;;;;;;1.77;1.67;;;6.00;91.60;;;;;;5072297;28;20507;-78
2020/12/24 10:12:05;;;;;;;2.05;1.80;;;6.00;91.70;;;;;;5055774;28;20047;-82
2020/12/24 10:14:31;;;;;;;1.85;1.60;;;6.00;91.70;;;;;;5073625;28;20020;-82
2020/12/24 10:16:57;;;;;;;2.63;1.73;;;6.00;91.70;;;;;;5072685;28;20032;-82
2020/12/24 10:19:22;;;;;;;1.88;1.77;;;6.00;91.70;;;;;;5076507;28;20039;-92
2020/12/24 10:21:48;;;;;;;4.38;2.30;;;6.00;91.80;;;;;;5061860;28;20028;-93
2020/12/24 10:24:14;;;;;;;7.65;2.72;;;6.00;91.80;;;;;;5061568;28;20191;-93
2020/12/24 10:26:40;;;;;;;4.22;2.67;;;6.00;91.70;;;;;;5080311;28;20036;-92
2020/12/24 10:29:05;;;;;;;8.32;3.13;;;6.00;91.70;;;;;;5062258;28;20025;-89
2020/12/24 10:31:31;;;;;;;7.25;3.33;;;6.00;91.80;;;;;;5062286;28;20092;-92
2020/12/24 10:33:57;;;;;;;10.10;3.35;;;6.00;91.90;;;;;;5062642;28;20476;-90
2020/12/24 10:36:25;;;;;;;5.25;3.53;;;6.10;91.90;;;;;;5074418;28;20040;-89
2020/12/24 10:38:51;;;;;;;4.25;2.72;;;6.10;91.80;;;;;;5059549;28;20063;-91
2020/12/24 10:41:17;;;;;;;6.32;3.13;;;6.10;91.80;;;;;;5076546;28;20457;-91
2020/12/24 10:43:44;;;;;;;4.80;2.47;;;6.10;91.70;;;;;;5075861;28;20420;-91
2020/12/24 10:46:21;;;;;;;3.50;2.50;;;6.10;91.80;;;;;;5058442;28;20040;-91
2020/12/24 10:48:48;;;;;;;3.53;2.60;;;6.20;91.80;;;;;;5075863;28;20020;-92
2020/12/24 10:51:17;;;;;;;5.07;2.95;;;6.10;91.70;;;;;;5076175;28;20067;-91
2020/12/24 10:53:43;;;;;;;4.90;2.67;;;6.10;91.70;;;;;;5075010;28;20035;-88
2020/12/24 10:56:12;;;;;;;7.25;3.05;;;6.10;91.80;;;;;;5040912;28;20029;-90
2020/12/24 10:58:41;;;;;;;5.65;2.78;;;6.10;91.80;;;;;;5056834;28;20051;-90
2020/12/24 11:01:14;;;;;;;6.80;3.43;;;6.10;91.90;;;;;;5074985;28;20029;-91
2020/12/24 11:03:40;;;;;;;4.97;2.80;;;6.20;92.00;;;;;;5073341;28;20273;-91
2020/12/24 11:06:06;;;;;;;6.82;3.42;;;6.20;91.90;;;;;;5071870;28;20048;-78
2020/12/24 11:08:34;;;;;;;6.57;3.72;;;6.30;91.90;;;;;;5072146;28;20174;-78
2020/12/24 11:10:59;;;;;;;5.28;2.97;;;6.30;91.90;;;;;;5072873;28;20027;-78
2020/12/24 11:13:25;;;;;;;5.47;3.00;;;6.30;91.80;;;;;;5072683;28;20120;-78
2020/12/24 11:15:51;;;;;;;4.32;2.83;;;6.30;92.10;;;;;;5035560;28;20083;-78
2020/12/24 11:18:17;;;;;;;4.55;3.30;;;6.30;91.80;;;;;;5071526;28;20353;-76
2020/12/24 11:20:42;;;;;;;4.82;3.50;;;6.30;91.80;;;;;;5050728;28;20036;-78
2020/12/24 11:23:08;;;;;;;4.47;3.50;;;6.30;91.90;;;;;;5058523;28;20028;-78
2020/12/24 11:25:34;;;;;;;5.05;2.90;;;6.20;92.00;;;;;;5054833;28;20025;-78
2020/12/24 11:28:01;;;;;;;5.28;3.35;;;6.20;92.20;;;;;;5072368;28;20039;-78
2020/12/24 11:30:27;;;;;;;4.38;2.92;;;6.20;92.20;;;;;;5052396;28;20029;-78
2020/12/24 11:32:52;;;;;;;3.47;2.92;;;6.20;92.30;;;;;;5058501;28;20028;-78
2020/12/24 11:35:18;;;;;;;6.70;3.45;;;6.20;92.20;;;;;;5056554;28;20380;-78
2020/12/24 11:37:44;;;;;;;4.07;3.63;;;6.20;92.30;;;;;;5076195;28;20111;-92
2020/12/24 11:40:09;;;;;;;4.28;3.20;;;6.20;92.40;;;;;;5040205;28;20041;-92
2020/12/24 11:42:35;;;;;;;4.95;2.88;;;6.30;92.40;;;;;;5058759;28;20056;-80
2020/12/24 11:45:00;;;;;;;5.00;2.95;;;6.30;92.30;;;;;;5041094;28;20601;-77
2020/12/24 11:47:26;;;;;;;4.00;2.50;;;6.40;92.30;;;;;;5059409;28;20035;-87
2020/12/24 11:49:51;;;;;;;3.88;2.83;;;6.40;92.30;;;;;;5059013;28;20032;-88
2020/12/24 11:52:17;;;;;;;4.32;3.17;;;6.40;92.30;;;;;;5074578;28;20028;-74
2020/12/24 11:54:43;;;;;;;4.20;2.70;;;6.40;92.30;;;;;;5074551;28;20029;-75
2020/12/24 11:57:08;;;;;;;5.18;2.97;;;6.40;92.30;;;;;;5074899;28;20035;-74
2020/12/24 11:59:34;;;;;;;5.90;3.00;;;6.40;92.40;;;;;;5057914;28;20059;-74
2020/12/24 12:02:01;;;;;;;7.18;2.58;;;6.50;92.40;;;;;;5074464;28;20086;-76
2020/12/24 12:04:27;;;;;;;6.05;2.83;;;6.50;92.30;;;;;;5075579;28;20024;-76
2020/12/24 12:06:53;;;;;;;8.80;2.92;;;6.50;92.30;;;;;;5077758;28;20033;-75
2020/12/24 12:09:19;;;;;;;7.35;3.33;;;6.50;92.30;;;;;;5057660;28;20123;-74
2020/12/24 12:11:46;;;;;;;5.93;2.88;;;6.50;92.30;;;;;;5075396;28;20074;-74
2020/12/24 12:14:12;;;;;;;9.45;3.50;;;6.50;92.30;;;;;;5074149;28;20481;-74
2020/12/24 12:16:38;;;;;;;10.93;3.92;;;6.50;92.40;;;;;;5073899;28;20115;-74
2020/12/24 12:19:04;;;;;;;12.23;3.67;;;6.50;92.50;;;;;;5074205;28;20025;-74
2020/12/24 12:21:30;;;;;;;9.48;3.50;;;6.50;92.40;;;;;;5054824;28;20086;-74
2020/12/24 12:23:56;;;;;;;8.63;3.80;;;6.50;92.40;;;;;;5052874;28;20039;-76
2020/12/24 12:26:22;;;;;;;7.60;3.83;;;6.50;92.50;;;;;;5037673;28;20480;-77
2020/12/24 12:28:48;;;;;;;8.65;3.67;;;6.50;92.60;;;;;;5070676;28;20052;-76
2020/12/24 12:31:18;;;;;;;5.57;3.15;;;6.50;92.70;;;;;;5070751;28;20500;-76
2020/12/24 12:33:44;;;;;;;7.72;3.60;;;6.50;92.60;;;;;;5070815;28;20584;-80
2020/12/24 12:36:10;;;;;;;11.25;4.10;;;6.50;92.50;;;;;;5037673;28;20066;-81
2020/12/24 12:38:35;;;;;;;12.50;3.75;;;6.60;92.60;;;;;;5073982;28;20397;-79
2020/12/24 12:41:01;;;;;;;6.78;3.40;;;6.50;92.60;;;;;;5073734;28;20032;-82
2020/12/24 12:43:26;;;;;;;12.32;3.83;;;6.60;92.60;;;;;;5073016;28;20028;-83
2020/12/24 12:45:52;;;;;;;10.48;4.03;;;6.70;92.60;;;;;;5043470;28;20074;-82
2020/12/24 12:48:18;;;;;;;7.45;3.35;;;6.70;92.60;;;;;;5054259;28;20385;-81
2020/12/24 12:50:43;;;;;;;7.30;3.58;;;6.60;92.60;;;;;;5054275;28;20091;-83
2020/12/24 12:53:09;;;;;;;13.23;3.90;;;6.70;92.60;;;;;;5059047;28;20029;-84
2020/12/24 12:55:35;;;;;;;15.02;4.20;;;6.60;92.60;;;;;;5075220;28;20484;-81